Time;durP1;ratioP1;P1;durP2;ratioP2;P2;SDS_P1;SDS_P2;PMS_P1;PMS_P2;Temp;Humidity;BMP_temperature;BMP_pressure;BME280_temperature;BME280_humidity;BME280_pressure;Samples;Min_cycle;Max_cycle;Signal;HPM_P1;HPM_P2
2021/06/07 00:01:58;;;;;;;25.05;10.72;;;;;;;11.50;70.18;99255.05;2127412;84;21107;-68
2021/06/07 00:04:59;;;;;;;26.05;10.88;;;;;;;11.44;69.64;99255.77;2127692;84;21040;-66
2021/06/07 00:07:59;;;;;;;25.75;10.82;;;;;;;11.35;69.88;99252.38;2127533;83;21021;-67
2021/06/07 00:11:00;;;;;;;22.70;9.38;;;;;;;11.25;70.05;99256.46;2127687;84;20974;-68
2021/06/07 00:14:02;;;;;;;21.80;8.85;;;;;;;11.17;70.52;99256.05;2127710;84;21024;-67
2021/06/07 00:17:02;;;;;;;20.95;7.60;;;;;;;11.13;70.64;99257.14;2127609;83;21536;-67
2021/06/07 00:20:03;;;;;;;19.92;6.78;;;;;;;11.04;70.76;99253.27;2127714;84;21008;-67
2021/06/07 00:23:03;;;;;;;22.42;8.10;;;;;;;10.99;70.91;99253.52;2127784;84;21001;-66
2021/06/07 00:26:03;;;;;;;20.30;8.25;;;;;;;10.94;70.98;99250.77;2127717;84;21065;-67
2021/06/07 00:29:04;;;;;;;48.40;4.95;;;;;;;10.88;70.95;99248.86;2127492;84;20992;-68
2021/06/07 00:32:04;;;;;;;36.23;10.23;;;;;;;10.83;71.11;99253.53;2127616;84;20977;-68
2021/06/07 00:35:05;;;;;;;20.80;8.15;;;;;;;10.75;71.02;99257.03;2127428;84;20968;-68
2021/06/07 00:38:05;;;;;;;23.27;9.83;;;;;;;10.63;71.34;99253.31;2127623;84;21460;-68
2021/06/07 00:41:05;;;;;;;23.70;9.18;;;;;;;10.60;71.51;99248.69;2127592;84;21001;-68
2021/06/07 00:44:06;;;;;;;22.07;8.90;;;;;;;10.60;71.46;99253.93;2127716;84;20981;-68
2021/06/07 00:47:07;;;;;;;17.17;5.58;;;;;;;10.57;70.97;99254.94;2127595;83;21012;-64
2021/06/07 00:50:09;;;;;;;17.85;5.78;;;;;;;10.48;70.78;99254.97;2127393;84;21024;-69
2021/06/07 00:53:11;;;;;;;31.57;5.78;;;;;;;10.40;71.03;99254.08;2099742;84;20989;-68
2021/06/07 00:56:11;;;;;;;23.02;7.12;;;;;;;10.31;71.32;99257.14;2127508;83;21104;-68
2021/06/07 00:59:12;;;;;;;17.67;5.97;;;;;;;10.21;71.79;99261.19;2127490;84;21476;-68
2021/06/07 01:02:14;;;;;;;19.97;6.80;;;;;;;10.15;71.98;99260.20;2127513;84;21048;-68
2021/06/07 01:05:15;;;;;;;18.90;6.10;;;;;;;10.13;72.18;99262.91;2127788;83;21044;-68
2021/06/07 01:08:15;;;;;;;20.52;7.40;;;;;;;10.12;72.44;99266.45;2123586;84;21501;-69
2021/06/07 01:11:16;;;;;;;19.42;7.40;;;;;;;10.10;72.74;99264.83;2117727;83;20962;-68
2021/06/07 01:14:16;;;;;;;20.12;7.30;;;;;;;10.04;72.93;99257.69;2117723;84;21016;-69
2021/06/07 01:17:17;;;;;;;21.40;8.53;;;;;;;10.06;72.54;99258.91;2117654;84;21097;-67
2021/06/07 01:20:17;;;;;;;23.20;8.30;;;;;;;10.11;72.40;99262.59;2117940;84;21020;-67
2021/06/07 01:23:18;;;;;;;21.90;8.00;;;;;;;10.10;72.19;99256.52;2117750;84;21001;-66
2021/06/07 01:26:18;;;;;;;22.70;7.97;;;;;;;10.06;72.37;99253.67;2117994;84;20977;-67
2021/06/07 01:29:18;;;;;;;26.17;6.47;;;;;;;10.05;72.50;99254.11;2118020;84;21476;-67
2021/06/07 01:32:19;;;;;;;19.02;6.10;;;;;;;10.16;73.00;99252.26;2118002;84;21012;-67
2021/06/07 01:35:19;;;;;;;12.37;4.47;;;;;;;10.05;72.65;99255.90;2117878;83;20994;-65
2021/06/07 01:38:20;;;;;;;17.30;6.10;;;;;;;9.91;71.95;99250.53;2117693;84;21048;-68
2021/06/07 01:41:21;;;;;;;21.77;7.78;;;;;;;9.80;72.08;99255.02;2118203;84;20981;-67
2021/06/07 01:44:21;;;;;;;19.35;7.20;;;;;;;9.72;72.52;99246.22;2118204;84;20954;-67
2021/06/07 01:47:22;;;;;;;22.15;7.50;;;;;;;9.71;72.66;99248.01;2117867;84;20981;-66
2021/06/07 01:50:22;;;;;;;26.97;9.48;;;;;;;9.81;72.59;99243.16;2117965;83;21503;-67
2021/06/07 01:53:23;;;;;;;23.12;9.50;;;;;;;9.78;72.54;99241.97;2118010;84;21463;-68
2021/06/07 01:56:23;;;;;;;25.55;10.65;;;;;;;9.80;72.79;99245.85;2117673;84;20998;-65
2021/06/07 01:59:24;;;;;;;26.07;10.10;;;;;;;9.94;72.99;99239.87;2118060;84;21004;-65
2021/06/07 02:02:24;;;;;;;21.48;7.83;;;;;;;9.93;72.67;99248.66;2118090;84;21024;-68
2021/06/07 02:05:24;;;;;;;24.35;8.18;;;;;;;9.77;72.22;99241.61;2118078;84;20993;-67
2021/06/07 02:08:29;;;;;;;20.75;8.23;;;;;;;9.73;72.53;99246.62;2117652;84;21005;-68
2021/06/07 02:11:27;;;;;;;22.73;8.80;;;;;;;9.64;73.05;99251.86;2098182;84;21067;-66
2021/06/07 02:14:28;;;;;;;23.67;9.10;;;;;;;9.49;73.08;99236.44;2117874;84;21017;-67
2021/06/07 02:17:28;;;;;;;24.72;10.30;;;;;;;9.51;73.00;99243.77;2117942;84;21507;-67
2021/06/07 02:20:29;;;;;;;22.05;8.55;;;;;;;9.53;73.50;99250.23;2117803;84;21499;-68
2021/06/07 02:23:29;;;;;;;20.15;8.13;;;;;;;9.52;73.06;99245.91;2117955;84;20982;-68
2021/06/07 02:26:29;;;;;;;20.20;8.10;;;;;;;9.47;73.42;99246.63;2117845;84;21020;-68
2021/06/07 02:29:30;;;;;;;18.55;7.45;;;;;;;9.45;73.61;99245.84;2118212;84;20981;-67
2021/06/07 02:32:31;;;;;;;18.25;7.47;;;;;;;9.45;73.76;99240.59;2117853;83;21017;-68
2021/06/07 02:35:31;;;;;;;22.37;8.48;;;;;;;9.47;73.73;99245.31;2117733;84;21052;-68
2021/06/07 02:38:32;;;;;;;23.62;8.18;;;;;;;9.51;73.68;99253.37;2117611;84;21566;-68
2021/06/07 02:41:32;;;;;;;21.60;8.88;;;;;;;9.62;73.34;99245.00;2117926;84;20993;-68
2021/06/07 02:44:33;;;;;;;22.17;8.90;;;;;;;9.59;73.00;99243.84;2118508;84;20946;-68
2021/06/07 02:47:33;;;;;;;25.77;10.10;;;;;;;9.58;73.37;99252.15;2118006;84;20958;-66
2021/06/07 02:50:33;;;;;;;21.35;8.15;;;;;;;9.53;73.77;99248.45;2118105;84;20981;-68
2021/06/07 02:53:34;;;;;;;24.55;9.18;;;;;;;9.57;73.74;99249.61;2117490;84;21060;-69
2021/06/07 02:56:35;;;;;;;22.90;8.88;;;;;;;9.63;73.59;99242.77;2117919;84;20998;-68
2021/06/07 02:59:35;;;;;;;22.42;9.15;;;;;;;9.69;73.53;99241.14;2117763;84;21488;-67
2021/06/07 03:02:36;;;;;;;22.62;8.93;;;;;;;9.85;73.54;99243.83;2117820;84;21508;-68
2021/06/07 03:05:36;;;;;;;20.82;8.65;;;;;;;10.06;73.43;99243.19;2117769;84;20988;-68
2021/06/07 03:08:37;;;;;;;22.85;9.85;;;;;;;10.15;72.90;99236.61;2125695;83;21039;-67
2021/06/07 03:11:37;;;;;;;22.10;9.18;;;;;;;10.14;72.91;99240.16;2143865;83;21016;-65
2021/06/07 03:14:41;;;;;;;23.20;8.83;;;;;;;10.17;72.84;99251.34;2143926;83;21007;-61
2021/06/07 03:17:40;;;;;;;24.27;9.33;;;;;;;10.31;72.80;99248.44;2117908;83;20985;-65
2021/06/07 03:20:41;;;;;;;21.62;8.13;;;;;;;10.47;72.80;99244.56;2143679;83;21013;-67
2021/06/07 03:23:41;;;;;;;23.32;8.85;;;;;;;10.64;72.46;99244.97;2143776;83;21016;-68
2021/06/07 03:26:42;;;;;;;19.42;6.97;;;;;;;10.80;72.19;99252.84;2143826;83;21068;-67
2021/06/07 03:29:42;;;;;;;22.00;7.65;;;;;;;10.99;71.96;99257.91;2143885;83;21506;-67
2021/06/07 03:32:43;;;;;;;21.73;8.13;;;;;;;11.22;72.14;99257.92;2143886;83;21466;-66
2021/06/07 03:35:43;;;;;;;20.80;9.13;;;;;;;11.45;72.11;99255.32;2143607;83;21023;-67
2021/06/07 03:38:44;;;;;;;26.30;13.28;;;;;;;11.67;71.99;99254.06;2143712;83;21009;-66
2021/06/07 03:41:44;;;;;;;31.05;18.40;;;;;;;11.96;71.45;99253.67;2144117;83;21044;-62
2021/06/07 03:44:45;;;;;;;26.65;13.43;;;;;;;12.17;71.16;99255.48;2143853;83;21080;-67
2021/06/07 03:47:46;;;;;;;24.57;11.20;;;;;;;12.40;70.97;99251.92;2143886;83;21016;-66
2021/06/07 03:50:46;;;;;;;29.15;12.05;;;;;;;12.62;70.90;99249.62;2143898;83;20993;-66
2021/06/07 03:53:46;;;;;;;26.27;12.82;;;;;;;12.78;70.85;99244.72;2143755;83;21483;-63
2021/06/07 03:56:47;;;;;;;25.15;12.37;;;;;;;12.88;70.92;99244.50;2143853;83;21475;-66
2021/06/07 03:59:48;;;;;;;28.05;11.93;;;;;;;13.01;71.09;99248.51;2143357;83;21118;-65
2021/06/07 04:02:49;;;;;;;26.42;12.10;;;;;;;13.09;71.09;99250.67;2143625;83;21036;-61
2021/06/07 04:05:49;;;;;;;28.20;11.83;;;;;;;13.24;71.40;99247.02;2143710;83;20992;-66
2021/06/07 04:08:55;;;;;;;27.17;10.98;;;;;;;13.38;71.02;99254.54;2143929;83;21014;-63
2021/06/07 04:11:52;;;;;;;27.90;11.53;;;;;;;13.59;70.83;99260.16;2117866;83;21432;-62
2021/06/07 04:14:52;;;;;;;27.73;11.10;;;;;;;13.67;70.47;99259.18;2143841;83;21033;-62
2021/06/07 04:17:53;;;;;;;26.80;10.98;;;;;;;13.73;69.92;99259.24;2144122;83;20993;-61
2021/06/07 04:20:54;;;;;;;28.77;12.28;;;;;;;13.78;70.11;99260.63;2143835;83;20964;-62
2021/06/07 04:23:55;;;;;;;25.57;11.08;;;;;;;13.90;70.00;99262.06;2143956;83;20980;-61
2021/06/07 04:26:55;;;;;;;27.95;11.80;;;;;;;13.97;69.30;99260.70;2143520;83;21302;-62
2021/06/07 04:29:56;;;;;;;28.55;11.65;;;;;;;14.14;69.83;99267.47;2143658;83;21063;-62
2021/06/07 04:32:56;;;;;;;28.35;10.93;;;;;;;14.44;69.32;99263.63;2144109;83;20979;-62
2021/06/07 04:35:57;;;;;;;24.52;10.53;;;;;;;14.68;69.08;99265.05;2143819;83;21089;-62
2021/06/07 04:38:58;;;;;;;22.25;9.78;;;;;;;14.94;68.68;99259.70;2143391;83;21074;-61
2021/06/07 04:41:58;;;;;;;21.70;10.15;;;;;;;15.21;68.69;99264.31;2143765;83;21046;-68
2021/06/07 04:44:59;;;;;;;25.48;10.45;;;;;;;15.39;68.42;99265.23;2143681;83;21514;-68
2021/06/07 04:48:00;;;;;;;22.05;10.10;;;;;;;15.57;68.04;99260.36;2143400;83;21024;-67
2021/06/07 04:51:00;;;;;;;22.02;10.08;;;;;;;15.78;67.33;99260.55;2143743;83;20992;-68
2021/06/07 04:54:00;;;;;;;26.40;10.23;;;;;;;16.00;66.98;99266.88;2143831;83;20988;-68
2021/06/07 04:57:01;;;;;;;22.87;10.38;;;;;;;16.11;66.98;99261.61;2143666;83;21028;-68
2021/06/07 05:00:01;;;;;;;22.37;9.65;;;;;;;16.28;66.69;99272.23;2144017;83;21032;-68
2021/06/07 05:03:02;;;;;;;23.35;9.48;;;;;;;16.53;66.43;99272.95;2143968;83;21039;-68
2021/06/07 05:06:03;;;;;;;22.67;10.08;;;;;;;16.52;65.14;99268.61;2143779;83;21027;-63
2021/06/07 05:09:03;;;;;;;22.60;9.88;;;;;;;16.63;65.61;99268.61;2136409;83;20989;-63
2021/06/07 05:12:05;;;;;;;23.22;10.50;;;;;;;16.81;65.24;99272.94;2117888;84;20977;-64
2021/06/07 05:15:06;;;;;;;21.65;9.50;;;;;;;16.90;65.49;99268.24;2118083;84;21062;-64
2021/06/07 05:18:06;;;;;;;21.35;9.00;;;;;;;17.26;64.72;99268.87;2118009;84;20989;-66
2021/06/07 05:21:07;;;;;;;22.65;9.50;;;;;;;17.31;63.49;99264.52;2117882;84;21009;-62
2021/06/07 05:24:07;;;;;;;23.20;9.30;;;;;;;17.46;63.99;99260.60;2117790;83;21037;-62
2021/06/07 05:27:08;;;;;;;20.90;9.88;;;;;;;17.75;63.62;99265.78;2117979;84;21483;-62
2021/06/07 05:30:08;;;;;;;21.97;9.33;;;;;;;17.98;63.26;99256.73;2117995;84;21016;-62
2021/06/07 05:33:09;;;;;;;20.77;8.95;;;;;;;18.39;62.27;99262.61;2118023;84;21000;-63
2021/06/07 05:36:09;;;;;;;19.95;8.28;;;;;;;18.70;62.48;99264.29;2118147;84;20977;-63
2021/06/07 05:39:14;;;;;;;20.97;8.75;;;;;;;18.81;61.09;99263.33;2118013;83;20988;-62
2021/06/07 05:42:12;;;;;;;20.88;8.40;;;;;;;18.99;60.91;99263.56;2098053;84;21049;-63
2021/06/07 05:45:13;;;;;;;21.15;8.43;;;;;;;19.31;60.86;99265.60;2117949;84;20984;-63
2021/06/07 05:48:13;;;;;;;20.77;8.10;;;;;;;19.53;60.61;99267.16;2117853;84;20986;-63
2021/06/07 05:51:14;;;;;;;19.98;6.87;;;;;;;19.82;59.35;99267.16;2117749;84;21086;-63
2021/06/07 05:54:14;;;;;;;20.20;7.28;;;;;;;20.06;58.49;99267.20;2117997;84;21012;-63
2021/06/07 05:57:15;;;;;;;19.12;7.00;;;;;;;20.20;57.82;99266.75;2117958;84;21017;-63
2021/06/07 06:00:16;;;;;;;17.27;6.63;;;;;;;20.40;57.13;99258.20;2117759;84;21049;-63
2021/06/07 06:03:16;;;;;;;18.20;6.67;;;;;;;20.55;57.14;99258.55;2118108;84;21523;-64
2021/06/07 06:06:17;;;;;;;19.60;6.80;;;;;;;20.81;56.64;99255.73;2117863;84;21052;-69
2021/06/07 06:09:18;;;;;;;19.30;6.97;;;;;;;21.04;57.44;99257.48;2118072;84;21586;-68
2021/06/07 06:12:18;;;;;;;20.00;6.83;;;;;;;21.21;56.32;99263.33;2118044;84;21488;-68
2021/06/07 06:15:19;;;;;;;19.75;6.62;;;;;;;21.35;54.93;99259.30;2118069;84;20985;-68
2021/06/07 06:18:19;;;;;;;17.92;6.10;;;;;;;21.51;54.16;99261.78;2118027;83;21051;-69
2021/06/07 06:21:20;;;;;;;17.20;5.90;;;;;;;21.55;53.92;99261.34;2118368;84;21013;-69
2021/06/07 06:24:20;;;;;;;18.93;6.13;;;;;;;21.68;53.79;99263.63;2118123;84;21030;-69
2021/06/07 06:27:21;;;;;;;19.20;6.00;;;;;;;21.82;51.46;99270.22;2118037;84;20974;-68
2021/06/07 06:30:21;;;;;;;20.17;5.77;;;;;;;21.84;50.77;99269.59;2118148;84;20977;-68
2021/06/07 06:33:21;;;;;;;16.43;5.80;;;;;;;21.96;52.29;99261.64;2118072;83;21496;-68
2021/06/07 06:36:22;;;;;;;16.60;5.80;;;;;;;22.04;51.26;99266.22;2118004;84;20993;-67
2021/06/07 06:39:22;;;;;;;14.95;5.22;;;;;;;22.17;52.64;99267.14;2118070;84;20977;-69
2021/06/07 06:42:23;;;;;;;14.10;5.33;;;;;;;22.52;51.06;99267.20;2118177;84;21040;-69
2021/06/07 06:45:23;;;;;;;16.43;5.53;;;;;;;22.79;51.17;99267.47;2118150;84;21017;-70
2021/06/07 06:48:24;;;;;;;15.40;5.67;;;;;;;23.11;51.10;99269.42;2117901;84;20993;-69
2021/06/07 06:51:24;;;;;;;13.17;4.80;;;;;;;23.35;49.52;99266.47;2118197;83;20950;-70
2021/06/07 06:54:24;;;;;;;15.43;5.20;;;;;;;23.43;48.99;99265.15;2117997;84;21433;-70
2021/06/07 06:57:25;;;;;;;14.77;5.07;;;;;;;23.55;48.90;99268.33;2117991;84;21452;-63
2021/06/07 07:00:25;;;;;;;13.50;4.93;;;;;;;23.63;47.40;99270.16;2117978;84;21002;-64
2021/06/07 07:03:26;;;;;;;14.87;4.80;;;;;;;23.57;46.79;99273.52;2117985;84;21029;-64
2021/06/07 07:06:27;;;;;;;16.47;5.10;;;;;;;23.63;45.75;99275.52;2118026;83;21563;-64
2021/06/07 07:09:27;;;;;;;16.07;4.77;;;;;;;23.61;44.08;99282.38;2119896;83;21059;-63
2021/06/07 07:12:28;;;;;;;15.67;5.23;;;;;;;23.58;45.18;99282.72;2128057;84;21001;-63
2021/06/07 07:15:28;;;;;;;16.90;5.53;;;;;;;23.57;45.20;99284.22;2127722;84;21020;-63
2021/06/07 07:18:29;;;;;;;16.40;4.33;;;;;;;23.63;43.99;99287.08;2128126;84;21020;-64
2021/06/07 07:21:29;;;;;;;12.70;4.70;;;;;;;23.77;44.66;99284.22;2127867;83;21112;-64
2021/06/07 07:24:30;;;;;;;15.00;4.50;;;;;;;23.92;44.42;99275.53;2127878;83;21482;-64
2021/06/07 07:27:30;;;;;;;12.10;4.87;;;;;;;24.06;42.77;99286.91;2127764;84;21491;-64
2021/06/07 07:30:31;;;;;;;16.12;5.20;;;;;;;23.99;41.70;99293.47;2127614;84;21100;-66
2021/06/07 07:33:37;;;;;;;12.63;4.50;;;;;;;24.00;42.48;99287.59;2127755;83;20984;-68
2021/06/07 07:36:34;;;;;;;14.28;4.70;;;;;;;24.06;42.78;99284.73;2099576;84;21508;-65
2021/06/07 07:39:35;;;;;;;13.17;4.23;;;;;;;24.32;43.32;99289.88;2127729;83;21005;-64
2021/06/07 07:42:35;;;;;;;15.23;5.43;;;;;;;24.43;43.57;99281.98;2127831;84;21040;-67
2021/06/07 07:45:36;;;;;;;13.90;4.30;;;;;;;24.52;42.27;99283.14;2127864;83;21021;-65
2021/06/07 07:48:36;;;;;;;11.73;4.10;;;;;;;24.46;42.82;99278.44;2127877;84;21000;-65
2021/06/07 07:51:37;;;;;;;11.37;4.03;;;;;;;24.63;41.46;99281.12;2128007;83;21297;-68
2021/06/07 07:54:37;;;;;;;9.47;3.67;;;;;;;24.73;38.46;99281.23;2127720;84;21012;-69
2021/06/07 07:57:38;;;;;;;16.17;4.30;;;;;;;24.62;40.17;99271.39;2127898;84;21551;-69
2021/06/07 08:00:39;;;;;;;8.85;3.05;;;;;;;24.73;42.26;99274.52;2127601;83;21527;-69
2021/06/07 08:03:39;;;;;;;8.37;2.90;;;;;;;25.00;35.70;99272.39;2127528;84;21100;-70
2021/06/07 08:06:42;;;;;;;9.93;3.20;;;;;;;24.96;34.41;99275.09;2127361;84;21001;-69
2021/06/07 08:09:42;;;;;;;8.30;3.02;;;;;;;24.92;35.30;99273.77;2097356;84;21029;-70
2021/06/07 08:12:45;;;;;;;11.27;3.00;;;;;;;24.75;34.01;99277.55;2118113;84;20990;-69
2021/06/07 08:15:45;;;;;;;7.50;3.00;;;;;;;24.71;35.51;99275.70;2117734;84;21013;-70
2021/06/07 08:18:46;;;;;;;11.23;3.07;;;;;;;24.72;33.16;99281.41;2118098;84;20994;-69
2021/06/07 08:21:46;;;;;;;9.10;2.80;;;;;;;24.70;34.13;99279.41;2118097;83;20989;-68
2021/06/07 08:24:47;;;;;;;8.00;3.10;;;;;;;24.62;32.18;99291.50;2117954;84;21473;-70
2021/06/07 08:27:47;;;;;;;10.73;3.43;;;;;;;24.77;32.55;99277.70;2118013;84;20993;-65
2021/06/07 08:30:47;;;;;;;7.77;3.23;;;;;;;25.05;34.85;99271.86;2117997;84;21020;-68
2021/06/07 08:33:48;;;;;;;10.87;3.47;;;;;;;25.13;32.84;99283.04;2118089;84;21027;-68
2021/06/07 08:36:48;;;;;;;9.07;2.97;;;;;;;25.26;34.25;99272.58;2118196;84;21120;-68
2021/06/07 08:39:49;;;;;;;8.73;3.30;;;;;;;25.34;31.94;99271.70;2118177;83;21000;-69
2021/06/07 08:42:49;;;;;;;10.67;3.33;;;;;;;25.31;31.92;99273.38;2118288;84;21017;-70
2021/06/07 08:45:50;;;;;;;9.47;3.30;;;;;;;25.17;32.58;99273.62;2118140;84;21024;-68
2021/06/07 08:48:50;;;;;;;14.87;3.80;;;;;;;25.17;32.45;99277.16;2118069;84;20986;-70
2021/06/07 08:51:51;;;;;;;9.53;3.37;;;;;;;25.16;32.68;99269.29;2117952;84;21021;-69
2021/06/07 08:54:52;;;;;;;11.13;3.80;;;;;;;25.53;33.35;99265.02;2118207;83;20985;-67
2021/06/07 08:57:52;;;;;;;11.50;3.80;;;;;;;25.71;32.25;99269.57;2118364;84;20958;-69
2021/06/07 09:00:52;;;;;;;9.83;3.57;;;;;;;25.78;32.15;99271.55;2118244;84;20978;-68
2021/06/07 09:03:53;;;;;;;10.53;3.80;;;;;;;26.06;33.47;99261.91;2117812;84;21037;-66
2021/06/07 09:06:54;;;;;;;11.07;3.30;;;;;;;26.12;33.31;99273.78;2117982;84;21076;-64
2021/06/07 09:09:54;;;;;;;11.40;3.53;;;;;;;25.89;31.95;99259.86;2118306;84;21060;-65
2021/06/07 09:12:55;;;;;;;11.03;3.67;;;;;;;26.12;34.79;99275.13;2118296;84;20985;-66
2021/06/07 09:15:55;;;;;;;13.17;3.87;;;;;;;25.74;31.64;99268.38;2118143;84;21032;-67
2021/06/07 09:18:56;;;;;;;13.30;3.77;;;;;;;25.06;32.86;99264.97;2118289;83;20993;-66
2021/06/07 09:21:56;;;;;;;12.77;3.50;;;;;;;25.35;32.98;99270.70;2117812;84;21504;-66
2021/06/07 09:24:57;;;;;;;11.37;4.00;;;;;;;25.42;34.33;99259.58;2118097;84;21100;-64
2021/06/07 09:27:57;;;;;;;11.10;3.50;;;;;;;25.37;35.40;99257.44;2118241;84;21020;-65
2021/06/07 09:30:58;;;;;;;9.90;3.93;;;;;;;24.70;34.36;99268.17;2118134;84;21072;-64
2021/06/07 09:34:01;;;;;;;10.70;3.73;;;;;;;24.34;35.33;99265.92;2118036;84;21029;-64
2021/06/07 09:37:00;;;;;;;9.83;3.50;;;;;;;25.01;35.88;99266.51;2098107;84;21016;-64
2021/06/07 09:40:01;;;;;;;13.43;3.40;;;;;;;25.68;34.36;99265.91;2118083;84;20977;-65
2021/06/07 09:43:01;;;;;;;12.90;3.50;;;;;;;26.11;34.24;99268.08;2118237;84;20954;-65
2021/06/07 09:46:02;;;;;;;13.00;3.40;;;;;;;25.88;33.12;99258.70;2118052;84;21464;-67
2021/06/07 09:49:02;;;;;;;8.87;3.33;;;;;;;26.13;32.87;99268.72;2118093;84;20977;-64
2021/06/07 09:52:03;;;;;;;7.57;3.33;;;;;;;26.43;31.33;99263.36;2118108;84;21476;-65
2021/06/07 09:55:03;;;;;;;11.70;3.90;;;;;;;26.48;31.53;99268.17;2118043;84;20961;-68
2021/06/07 09:58:05;;;;;;;8.70;3.60;;;;;;;26.51;33.41;99250.34;2117912;84;21042;-66
2021/06/07 10:01:06;;;;;;;14.05;3.40;;;;;;;26.33;31.79;99256.91;2117804;84;21060;-69
2021/06/07 10:04:06;;;;;;;9.83;3.40;;;;;;;25.68;30.56;99256.51;2117745;84;21029;-65
2021/06/07 10:07:07;;;;;;;11.27;3.33;;;;;;;25.28;32.16;99253.61;2118075;84;21009;-65
2021/06/07 10:10:08;;;;;;;12.55;4.12;;;;;;;25.84;31.98;99243.95;2117860;84;21670;-65
2021/06/07 10:13:08;;;;;;;12.80;3.30;;;;;;;26.30;33.93;99243.84;2118220;84;21032;-65
2021/06/07 10:16:09;;;;;;;11.93;3.57;;;;;;;26.57;33.45;99234.27;2118041;83;21032;-65
2021/06/07 10:19:16;;;;;;;6.77;2.90;;;;;;;26.57;32.02;99246.90;2118210;83;20958;-64
2021/06/07 10:22:12;;;;;;;7.72;3.33;;;;;;;26.54;31.91;99248.10;2098265;84;21500;-69
2021/06/07 10:25:13;;;;;;;9.07;3.20;;;;;;;26.08;32.83;99244.26;2118036;84;21001;-70
2021/06/07 10:28:13;;;;;;;6.25;3.02;;;;;;;26.04;31.00;99249.67;2118188;83;21057;-69
2021/06/07 10:31:14;;;;;;;11.27;3.20;;;;;;;26.42;30.63;99242.86;2118092;84;21025;-69
2021/06/07 10:34:14;;;;;;;11.47;3.37;;;;;;;26.82;30.11;99238.54;2118140;84;21020;-69
2021/06/07 10:37:15;;;;;;;10.67;3.57;;;;;;;26.37;30.38;99244.77;2118622;84;21475;-68
2021/06/07 10:40:15;;;;;;;10.43;3.57;;;;;;;26.24;31.47;99237.87;2118034;84;21013;-69
2021/06/07 10:43:16;;;;;;;9.70;3.20;;;;;;;26.53;30.58;99239.70;2118074;84;20977;-70
2021/06/07 10:46:16;;;;;;;12.40;3.27;;;;;;;26.83;32.05;99222.20;2118127;84;20984;-69
2021/06/07 10:49:16;;;;;;;10.67;3.17;;;;;;;27.45;29.79;99232.08;2118108;84;21029;-65
2021/06/07 10:52:17;;;;;;;11.17;3.33;;;;;;;27.54;28.43;99234.13;2118121;84;21036;-65
2021/06/07 10:55:18;;;;;;;11.90;3.67;;;;;;;27.74;28.85;99230.25;2117696;84;21093;-64
2021/06/07 10:58:18;;;;;;;12.00;3.70;;;;;;;28.14;28.07;99226.02;2117772;83;21567;-66
2021/06/07 11:01:19;;;;;;;12.70;3.33;;;;;;;28.43;29.39;99217.36;2118013;84;20993;-67
2021/06/07 11:04:19;;;;;;;10.43;3.40;;;;;;;28.44;27.79;99231.66;2118051;84;21012;-65
2021/06/07 11:07:20;;;;;;;14.77;3.50;;;;;;;28.05;28.35;99223.14;2118017;84;20987;-68
2021/06/07 11:10:20;;;;;;;10.07;3.10;;;;;;;27.25;29.39;99226.47;2118048;84;20993;-64
2021/06/07 11:13:21;;;;;;;9.50;3.13;;;;;;;26.89;28.89;99233.55;2118016;83;20989;-65
2021/06/07 11:16:21;;;;;;;14.50;3.23;;;;;;;27.28;29.31;99222.90;2118213;84;20981;-65
2021/06/07 11:19:21;;;;;;;10.33;3.30;;;;;;;27.54;28.64;99221.50;2118140;84;21025;-65
2021/06/07 11:22:22;;;;;;;9.63;3.27;;;;;;;27.47;27.49;99221.44;2117961;84;20986;-65
2021/06/07 11:25:22;;;;;;;8.77;3.23;;;;;;;27.89;27.53;99222.09;2117808;83;21487;-66
2021/06/07 11:28:23;;;;;;;7.37;2.90;;;;;;;28.21;28.56;99219.83;2118021;84;21463;-65
2021/06/07 11:31:23;;;;;;;7.43;2.93;;;;;;;28.15;26.74;99204.75;2118011;84;21520;-65
2021/06/07 11:34:24;;;;;;;12.13;3.47;;;;;;;27.56;27.52;99213.23;2117989;83;21025;-70
2021/06/07 11:37:24;;;;;;;9.03;3.43;;;;;;;26.88;28.96;99214.41;2118028;84;20989;-65
2021/06/07 11:40:25;;;;;;;12.33;3.17;;;;;;;27.46;30.50;99206.82;2118083;84;21020;-66
2021/06/07 11:43:25;;;;;;;10.03;3.10;;;;;;;28.19;27.26;99206.55;2118121;84;20973;-66
2021/06/07 11:46:26;;;;;;;8.80;2.73;;;;;;;27.83;26.65;99200.27;2118116;84;20989;-70
2021/06/07 11:49:26;;;;;;;8.97;3.27;;;;;;;27.21;28.78;99208.54;2117997;84;20989;-70
2021/06/07 11:52:27;;;;;;;10.23;3.22;;;;;;;26.67;28.97;99215.68;2117839;84;21065;-69
2021/06/07 11:55:30;;;;;;;9.43;3.17;;;;;;;26.68;30.75;99206.56;2117618;84;21021;-70
2021/06/07 11:58:30;;;;;;;9.00;3.10;;;;;;;27.22;28.75;99213.40;2097849;84;20977;-69
2021/06/07 12:01:31;;;;;;;8.78;3.15;;;;;;;27.60;26.68;99204.55;2117785;84;21119;-70
2021/06/07 12:04:32;;;;;;;8.83;2.90;;;;;;;27.73;27.98;99193.05;2117636;84;20997;-70
2021/06/07 12:07:33;;;;;;;12.78;3.52;;;;;;;28.18;28.62;99194.91;2117858;83;21016;-71
2021/06/07 12:10:35;;;;;;;7.90;2.92;;;;;;;28.26;25.59;99189.03;2118115;84;20985;-66
2021/06/07 12:13:35;;;;;;;8.90;3.10;;;;;;;28.47;27.08;99177.31;2127767;83;21009;-70
2021/06/07 12:16:36;;;;;;;9.13;2.97;;;;;;;28.98;25.39;99184.16;2127832;84;21017;-68
2021/06/07 12:22:39;;;;;;;9.03;3.15;;;;;;;29.67;25.90;99181.61;2099560;84;21064;-68
2021/06/07 12:28:42;;;;;;;11.68;3.33;;;;;;;27.64;26.27;99185.63;2098973;84;21036;-69
2021/06/07 12:31:42;;;;;;;12.80;3.30;;;;;;;26.90;27.90;99188.13;2127290;84;21546;-69
2021/06/07 12:34:42;;;;;;;9.87;3.33;;;;;;;26.34;28.41;99198.61;2127261;84;21523;-68
2021/06/07 12:37:43;;;;;;;11.83;3.30;;;;;;;26.31;29.08;99197.64;2127340;84;20957;-69
2021/06/07 12:40:43;;;;;;;6.57;3.03;;;;;;;26.96;27.85;99185.19;2127567;83;21040;-65
2021/06/07 12:43:45;;;;;;;7.77;3.10;;;;;;;27.48;28.41;99176.47;2127670;84;20965;-70
2021/06/07 12:46:46;;;;;;;11.28;2.75;;;;;;;28.25;27.84;99171.21;2127521;83;21016;-65
2021/06/07 12:49:46;;;;;;;8.63;3.03;;;;;;;29.07;25.20;99165.36;2127733;83;20949;-66
2021/06/07 12:52:47;;;;;;;14.17;3.00;;;;;;;29.73;28.49;99167.25;2127675;83;21495;-67
2021/06/07 12:55:48;;;;;;;8.33;2.90;;;;;;;29.92;27.39;99166.11;2127722;84;21011;-69
2021/06/07 12:58:48;;;;;;;12.07;3.20;;;;;;;29.58;26.05;99171.22;2127851;84;21048;-67
2021/06/07 13:01:50;;;;;;;7.47;2.90;;;;;;;28.59;26.79;99182.45;2127704;84;21551;-66
2021/06/07 13:04:51;;;;;;;10.23;3.10;;;;;;;27.96;26.89;99182.01;2127135;84;21109;-65
2021/06/07 13:07:51;;;;;;;8.43;3.00;;;;;;;28.19;26.95;99179.58;2127969;84;20985;-65
2021/06/07 13:10:52;;;;;;;9.33;3.00;;;;;;;28.49;27.47;99172.03;2127652;84;20981;-64
2021/06/07 13:13:52;;;;;;;8.23;3.00;;;;;;;28.74;27.09;99173.39;2127790;84;20993;-66
2021/06/07 13:16:53;;;;;;;8.27;3.00;;;;;;;28.99;25.87;99176.34;2127803;83;21568;-64
2021/06/07 13:19:56;;;;;;;10.63;3.05;;;;;;;29.40;25.92;99163.77;2127320;84;21464;-65
2021/06/07 13:22:56;;;;;;;12.37;3.15;;;;;;;29.67;27.18;99162.69;2099863;84;20981;-66
2021/06/07 13:25:57;;;;;;;9.63;3.30;;;;;;;29.96;26.30;99157.89;2127947;84;21091;-65
2021/06/07 13:28:57;;;;;;;8.93;3.10;;;;;;;29.58;25.62;99155.01;2128039;83;21542;-66
2021/06/07 13:31:58;;;;;;;8.30;3.00;;;;;;;29.30;26.75;99158.77;2128030;83;20985;-66
2021/06/07 13:34:58;;;;;;;9.87;3.03;;;;;;;29.14;25.53;99158.09;2128086;84;21024;-65
2021/06/07 13:37:59;;;;;;;7.37;2.80;;;;;;;28.93;25.99;99151.00;2128016;83;21017;-65
2021/06/07 13:40:59;;;;;;;9.70;2.93;;;;;;;29.06;25.28;99156.94;2127922;84;21496;-69
2021/06/07 13:44:00;;;;;;;11.93;3.33;;;;;;;29.00;25.93;99150.48;2127832;84;21532;-68
2021/06/07 13:47:01;;;;;;;7.87;3.17;;;;;;;29.09;26.47;99152.47;2127766;83;21005;-68
2021/06/07 13:50:04;;;;;;;9.35;3.02;;;;;;;29.15;24.75;99150.31;2127584;83;21072;-67
2021/06/07 13:53:04;;;;;;;7.97;3.00;;;;;;;29.10;24.95;99141.99;2127835;83;21015;-67
2021/06/07 13:56:05;;;;;;;9.30;3.10;;;;;;;29.23;25.08;99143.08;2127798;84;21024;-65
2021/06/07 13:59:06;;;;;;;7.78;3.08;;;;;;;28.97;24.71;99146.03;2127565;84;21527;-66
2021/06/07 14:02:06;;;;;;;6.57;2.90;;;;;;;28.79;25.87;99134.47;2127833;84;21012;-69
2021/06/07 14:05:07;;;;;;;6.63;2.87;;;;;;;28.86;24.30;99132.11;2127947;84;20985;-68
2021/06/07 14:08:07;;;;;;;8.43;3.10;;;;;;;28.94;24.27;99124.33;2127504;84;21068;-67